createdAt,value
2022-09-20T00:01:35.878Z,12.20
2022-09-20T00:04:06.832Z,12.19
2022-09-20T00:06:36.637Z,12.19
2022-09-20T00:09:06.235Z,12.20
2022-09-20T00:11:37.851Z,12.19
2022-09-20T00:14:08.640Z,12.18
2022-09-20T00:16:40.533Z,12.17
2022-09-20T00:19:16.646Z,12.16
2022-09-20T00:21:45.195Z,12.15
2022-09-20T00:24:13.500Z,12.13
2022-09-20T00:26:43.163Z,12.13
2022-09-20T00:29:12.696Z,12.12
2022-09-20T00:31:42.775Z,12.12
2022-09-20T00:34:29.677Z,12.11
2022-09-20T00:36:57.950Z,12.13
2022-09-20T00:39:26.592Z,12.12
2022-09-20T00:41:56.325Z,12.13
2022-09-20T00:44:59.452Z,12.12
2022-09-20T00:47:38.639Z,12.13
2022-09-20T00:50:25.254Z,12.14
2022-09-20T00:52:59.076Z,12.14
2022-09-20T00:55:28.829Z,12.14
2022-09-20T00:57:59.627Z,12.15
2022-09-20T01:00:28.954Z,12.16
2022-09-20T01:03:02.470Z,12.16
2022-09-20T01:05:31.246Z,12.14
2022-09-20T01:07:59.602Z,12.15
2022-09-20T01:10:28.359Z,12.15
2022-09-20T01:12:58.235Z,12.15
2022-09-20T01:15:29.573Z,12.13
2022-09-20T01:18:01.151Z,12.13
2022-09-20T01:20:32.536Z,12.12
2022-09-20T01:23:28.677Z,12.09
2022-09-20T01:26:42.753Z,12.07
2022-09-20T01:29:30.764Z,12.06
2022-09-20T01:32:06.230Z,12.06
2022-09-20T01:34:37.614Z,12.06
2022-09-20T01:37:14.959Z,12.06
2022-09-20T01:39:55.137Z,12.05
2022-09-20T01:42:31.238Z,12.05
2022-09-20T01:45:07.102Z,12.02
2022-09-20T01:47:44.815Z,12.01
2022-09-20T01:50:26.904Z,12.00
2022-09-20T01:53:28.520Z,11.97
2022-09-20T01:56:19.492Z,11.93
2022-09-20T01:59:25.035Z,11.88
2022-09-20T02:02:11.247Z,11.85
2022-09-20T02:05:35.204Z,11.79
2022-09-20T02:08:35.488Z,11.77
2022-09-20T02:11:14.851Z,11.71
2022-09-20T02:14:06.348Z,11.66
2022-09-20T02:16:52.077Z,11.62
2022-09-20T02:19:51.369Z,11.56
2022-09-20T02:22:50.978Z,11.51
2022-09-20T02:25:46.074Z,11.42
2022-09-20T02:28:30.403Z,11.34
2022-09-20T02:31:15.206Z,11.28
2022-09-20T02:34:10.204Z,11.22
2022-09-20T02:36:54.030Z,11.16
2022-09-20T02:39:27.815Z,11.10
2022-09-20T02:42:10.152Z,11.06
2022-09-20T02:45:03.888Z,10.99
2022-09-20T02:47:38.087Z,10.95
2022-09-20T02:50:29.778Z,10.88
2022-09-20T02:53:15.739Z,10.83
2022-09-20T02:55:59.805Z,10.78
2022-09-20T02:58:47.987Z,10.72
2022-09-20T03:01:33.669Z,10.68
2022-09-20T03:04:24.538Z,10.63
2022-09-20T03:07:02.634Z,10.60
2022-09-20T03:09:44.269Z,10.55
2022-09-20T03:12:27.250Z,10.51
2022-09-20T03:15:17.238Z,10.46
2022-09-20T03:17:59.192Z,10.42
2022-09-20T03:20:38.386Z,10.37
2022-09-20T03:23:23.882Z,10.34
2022-09-20T03:25:59.381Z,10.31
2022-09-20T03:28:58.251Z,10.27
2022-09-20T03:31:42.960Z,10.24
2022-09-20T03:34:31.156Z,10.20
2022-09-20T03:37:24.016Z,10.16
2022-09-20T03:40:21.017Z,10.12
2022-09-20T03:42:54.013Z,10.09
2022-09-20T03:45:41.506Z,10.04
2022-09-20T03:48:52.816Z,9.99
2022-09-20T03:51:33.793Z,9.96
2022-09-20T03:54:48.671Z,9.89
2022-09-20T03:57:36.106Z,9.84
2022-09-20T04:00:23.956Z,9.79
2022-09-20T04:03:11.579Z,9.75
2022-09-20T04:05:56.678Z,9.71
2022-09-20T04:08:49.130Z,9.63
2022-09-20T04:11:28.946Z,9.58
2022-09-20T04:14:10.653Z,9.55
2022-09-20T04:16:49.380Z,9.53
2022-09-20T04:19:32.188Z,9.53
2022-09-20T04:22:03.160Z,9.56
2022-09-20T04:24:41.815Z,9.59
2022-09-20T04:27:17.843Z,9.63
2022-09-20T04:29:54.104Z,9.68
2022-09-20T04:32:32.241Z,9.71
2022-09-20T04:35:36.884Z,9.73
2022-09-20T04:38:10.831Z,9.76
2022-09-20T04:41:01.922Z,9.74
2022-09-20T04:44:01.884Z,9.69
2022-09-20T04:47:19.495Z,9.65
2022-09-20T04:50:42.787Z,9.60
2022-09-20T04:53:58.900Z,9.54
2022-09-20T04:56:48.632Z,9.53
2022-09-20T04:59:30.956Z,9.52
2022-09-20T05:02:44.619Z,9.52
2022-09-20T05:06:03.118Z,9.53
2022-09-20T05:09:22.817Z,9.54
2022-09-20T05:12:27.244Z,9.57
2022-09-20T05:15:43.015Z,9.60
2022-09-20T05:19:03.077Z,9.60
2022-09-20T05:21:51.353Z,9.61
2022-09-20T05:24:38.394Z,9.64
2022-09-20T05:27:28.479Z,9.68
2022-09-20T05:30:06.633Z,9.74
2022-09-20T05:32:46.097Z,9.77
2022-09-20T05:35:23.876Z,9.79
2022-09-20T05:38:07.881Z,9.79
2022-09-20T05:41:04.630Z,9.81
2022-09-20T05:43:36.170Z,9.82
2022-09-20T05:46:17.907Z,9.83
2022-09-20T05:48:57.900Z,9.83
2022-09-20T05:51:45.782Z,9.84
2022-09-20T05:55:07.762Z,9.84
2022-09-20T05:57:56.416Z,9.88
2022-09-20T06:00:30.987Z,9.95
2022-09-20T06:03:12.229Z,10.03
2022-09-20T06:05:54.858Z,10.12
2022-09-20T06:09:06.467Z,10.21
2022-09-20T06:12:06.798Z,10.32
2022-09-20T06:14:46.780Z,10.44
2022-09-20T06:17:27.140Z,10.54
2022-09-20T06:20:14.704Z,10.60
2022-09-20T06:22:46.901Z,10.66
2022-09-20T06:25:22.852Z,10.75
2022-09-20T06:27:56.516Z,10.86
2022-09-20T06:30:28.956Z,10.94
2022-09-20T06:33:00.219Z,11.03
2022-09-20T06:35:38.574Z,11.08
2022-09-20T06:38:47.263Z,11.12
2022-09-20T06:41:28.353Z,11.14
2022-09-20T06:43:59.505Z,11.13
2022-09-20T06:46:29.312Z,11.17
2022-09-20T06:48:58.392Z,11.28
2022-09-20T06:51:29.213Z,11.49
2022-09-20T06:53:58.687Z,11.66
2022-09-20T06:56:30.476Z,11.76
2022-09-20T06:59:00.040Z,11.82
2022-09-20T07:01:30.659Z,11.86
2022-09-20T07:03:59.689Z,11.87
2022-09-20T07:06:29.221Z,12.02
2022-09-20T07:08:57.449Z,12.25
2022-09-20T07:11:25.923Z,12.48
2022-09-20T07:13:56.020Z,12.62
2022-09-20T07:16:26.338Z,12.74
2022-09-20T07:18:56.669Z,12.84
2022-09-20T07:21:25.355Z,12.93
2022-09-20T07:23:54.003Z,13.05
2022-09-20T07:26:25.471Z,13.19
2022-09-20T07:28:54.041Z,13.27
2022-09-20T07:31:27.327Z,13.36
2022-09-20T07:33:56.227Z,13.54
2022-09-20T07:36:24.852Z,13.72
2022-09-20T07:38:54.424Z,13.86
2022-09-20T07:41:23.665Z,13.98
2022-09-20T07:43:52.252Z,14.06
2022-09-20T07:46:23.397Z,14.16
2022-09-20T07:48:54.352Z,14.33
2022-09-20T07:51:22.875Z,14.50
2022-09-20T07:53:55.400Z,14.67
2022-09-20T07:56:23.696Z,14.90
2022-09-20T07:58:52.848Z,15.18
2022-09-20T08:01:22.482Z,15.66
2022-09-20T08:03:52.133Z,16.69
2022-09-20T08:06:21.365Z,17.86
2022-09-20T08:08:51.708Z,18.99
2022-09-20T08:11:27.715Z,20.04
2022-09-20T08:14:13.116Z,20.87
2022-09-20T08:16:43.084Z,21.68
2022-09-20T08:19:17.712Z,22.02
2022-09-20T08:21:46.378Z,22.18
2022-09-20T08:24:16.315Z,21.75
2022-09-20T08:26:45.460Z,21.24
2022-09-20T08:29:15.181Z,20.60
2022-09-20T08:31:43.613Z,19.99
2022-09-20T08:34:15.137Z,19.52
2022-09-20T08:36:46.765Z,19.08
2022-09-20T08:42:16.060Z,17.98
2022-09-20T08:45:00.429Z,17.54
2022-09-20T08:47:32.206Z,17.16
2022-09-20T08:50:17.593Z,16.87
2022-09-20T08:52:48.475Z,16.61
2022-09-20T08:55:20.106Z,16.39
2022-09-20T08:57:51.098Z,16.22
2022-09-20T09:00:22.556Z,16.09
2022-09-20T09:02:53.234Z,16.00
2022-09-20T09:05:35.696Z,15.95
2022-09-20T09:08:10.314Z,15.93
2022-09-20T09:10:43.069Z,15.91
2022-09-20T09:13:22.996Z,16.59
2022-09-20T09:15:58.207Z,17.69
2022-09-20T09:18:35.028Z,17.93
2022-09-20T09:21:07.688Z,17.62
2022-09-20T09:23:43.336Z,17.30
2022-09-20T09:26:21.107Z,17.00
2022-09-20T09:29:10.628Z,16.71
2022-09-20T09:31:39.775Z,16.43
2022-09-20T09:34:26.275Z,16.17
2022-09-20T09:36:56.624Z,16.00
2022-09-20T09:39:28.240Z,15.92
2022-09-20T09:42:00.798Z,15.86
2022-09-20T09:44:32.666Z,15.84
2022-09-20T09:47:01.973Z,15.91
2022-09-20T09:49:34.078Z,16.27
2022-09-20T09:52:14.305Z,17.30
2022-09-20T09:54:48.823Z,18.47
2022-09-20T09:57:34.435Z,19.62
2022-09-20T10:00:18.132Z,20.58
2022-09-20T10:03:22.137Z,21.58
2022-09-20T10:06:08.059Z,22.08
2022-09-20T10:08:51.046Z,21.91
2022-09-20T10:11:33.662Z,21.49
2022-09-20T10:14:18.261Z,20.95
2022-09-20T10:17:06.189Z,20.32
2022-09-20T10:19:57.268Z,19.60
2022-09-20T10:22:38.127Z,18.58
2022-09-20T10:25:21.245Z,17.22
2022-09-20T10:28:07.784Z,15.96
2022-09-20T10:30:56.901Z,15.02
2022-09-20T10:33:37.434Z,14.14
2022-09-20T10:36:18.059Z,13.55
2022-09-20T10:38:53.116Z,13.21
2022-09-20T10:42:00.604Z,13.03
2022-09-20T10:45:06.845Z,12.92
2022-09-20T10:47:41.699Z,12.81
2022-09-20T10:50:19.610Z,12.75
2022-09-20T10:53:04.556Z,12.68
2022-09-20T10:55:48.654Z,12.53
2022-09-20T10:59:01.754Z,12.46
2022-09-20T11:01:39.753Z,12.54
2022-09-20T11:04:33.899Z,12.58
2022-09-20T11:07:12.599Z,12.57
2022-09-20T11:09:48.292Z,12.59
2022-09-20T11:12:25.983Z,12.70
2022-09-20T11:15:00.748Z,12.90
2022-09-20T11:17:35.684Z,13.13
2022-09-20T11:20:16.292Z,13.47
2022-09-20T11:22:49.316Z,14.18
2022-09-20T11:25:24.923Z,15.06
2022-09-20T11:28:04.048Z,15.91
2022-09-20T11:30:37.457Z,16.24
2022-09-20T11:33:15.159Z,16.50
2022-09-20T11:35:49.208Z,16.81
2022-09-20T11:38:24.891Z,17.07
2022-09-20T11:41:00.335Z,17.67
2022-09-20T11:43:30.275Z,18.42
2022-09-20T11:46:07.755Z,18.82
2022-09-20T11:48:43.681Z,18.91
2022-09-20T11:51:37.172Z,19.01
2022-09-20T11:54:49.890Z,19.03
2022-09-20T11:57:18.319Z,18.83
2022-09-20T11:59:54.260Z,18.31
2022-09-20T12:02:32.765Z,17.57
2022-09-20T12:05:02.224Z,16.73
2022-09-20T12:07:36.130Z,16.12
2022-09-20T12:10:09.096Z,15.65
2022-09-20T12:12:42.436Z,15.26
2022-09-20T12:15:26.705Z,15.09
2022-09-20T12:18:33.270Z,15.17
2022-09-20T12:21:15.401Z,15.34
2022-09-20T12:24:18.967Z,15.50
2022-09-20T12:26:53.494Z,15.66
2022-09-20T12:30:08.369Z,15.82
2022-09-20T12:33:01.069Z,16.36
2022-09-20T12:36:18.334Z,17.18
2022-09-20T12:39:00.197Z,17.41
2022-09-20T12:41:29.385Z,17.65
2022-09-20T12:44:06.504Z,17.71
2022-09-20T12:46:43.707Z,17.58
2022-09-20T12:49:49.028Z,17.41
2022-09-20T12:52:50.520Z,17.18
2022-09-20T12:55:55.335Z,16.82
2022-09-20T12:58:29.680Z,16.28
2022-09-20T13:01:33.426Z,15.80
2022-09-20T13:04:53.832Z,15.45
2022-09-20T13:07:44.093Z,15.32
2022-09-20T13:10:30.464Z,15.26
2022-09-20T13:13:13.707Z,15.31
2022-09-20T13:15:48.698Z,15.32
2022-09-20T13:18:18.785Z,15.37
2022-09-20T13:20:47.292Z,15.40
2022-09-20T13:23:25.015Z,15.47
2022-09-20T13:25:54.382Z,15.56
2022-09-20T13:28:33.428Z,15.67
2022-09-20T13:31:35.657Z,15.87
2022-09-20T13:34:22.326Z,16.05
2022-09-20T13:36:56.327Z,16.15
2022-09-20T13:39:37.219Z,16.20
2022-09-20T13:42:16.247Z,16.15
2022-09-20T13:44:44.913Z,16.10
2022-09-20T13:47:25.191Z,16.07
2022-09-20T13:49:54.050Z,16.12
2022-09-20T13:52:26.543Z,16.48
2022-09-20T13:54:56.353Z,16.72
2022-09-20T13:57:28.956Z,16.78
2022-09-20T13:59:58.163Z,17.18
2022-09-20T14:02:31.263Z,17.76
2022-09-20T14:05:02.559Z,18.43
2022-09-20T14:07:31.608Z,19.06
2022-09-20T14:10:01.638Z,19.48
2022-09-20T14:12:30.455Z,19.63
2022-09-20T14:14:59.368Z,19.92
2022-09-20T14:17:31.943Z,20.22
2022-09-20T14:20:00.538Z,20.18
2022-09-20T14:22:30.191Z,19.88
2022-09-20T14:25:03.200Z,19.45
2022-09-20T14:27:32.612Z,19.11
2022-09-20T14:30:02.286Z,18.84
2022-09-20T14:32:45.139Z,18.53
2022-09-20T14:35:19.168Z,18.27
2022-09-20T14:37:51.452Z,18.07
2022-09-20T14:40:29.027Z,18.08
2022-09-20T14:42:59.630Z,18.08
2022-09-20T14:45:32.556Z,18.16
2022-09-20T14:48:09.617Z,18.20
2022-09-20T14:50:42.065Z,18.08
2022-09-20T14:53:27.652Z,18.01
2022-09-20T14:56:10.202Z,17.91
2022-09-20T14:59:20.187Z,17.81
2022-09-20T15:02:04.970Z,17.71
2022-09-20T15:04:35.370Z,17.63
2022-09-20T15:07:06.485Z,17.52
2022-09-20T15:09:35.780Z,17.42
2022-09-20T15:12:08.297Z,17.29
2022-09-20T15:14:38.068Z,17.20
2022-09-20T15:17:07.272Z,17.09
2022-09-20T15:19:35.487Z,16.98
2022-09-20T15:22:03.922Z,16.92
2022-09-20T15:24:32.430Z,16.86
2022-09-20T15:27:00.903Z,16.81
2022-09-20T15:29:30.893Z,16.76
2022-09-20T15:31:59.629Z,16.68
2022-09-20T15:34:28.081Z,16.65
2022-09-20T15:36:57.291Z,16.62
2022-09-20T15:39:25.911Z,16.58
2022-09-20T15:41:54.948Z,16.53
2022-09-20T15:44:23.336Z,16.50
2022-09-20T15:46:53.227Z,16.47
2022-09-20T15:49:22.040Z,16.41
2022-09-20T15:51:50.469Z,16.34
2022-09-20T15:54:19.349Z,16.24
2022-09-20T15:56:47.621Z,16.15
2022-09-20T15:59:16.370Z,16.06
2022-09-20T16:01:48.030Z,15.98
2022-09-20T16:04:20.375Z,15.92
2022-09-20T16:06:50.747Z,15.86
2022-09-20T16:09:19.575Z,15.83
2022-09-20T16:11:48.615Z,15.76
2022-09-20T16:14:17.362Z,15.68
2022-09-20T16:16:45.962Z,15.63
2022-09-20T16:19:20.768Z,15.56
2022-09-20T16:21:57.666Z,15.49
2022-09-20T16:24:28.775Z,15.43
2022-09-20T16:26:57.136Z,15.37
2022-09-20T16:29:25.900Z,15.33
2022-09-20T16:31:55.811Z,15.30
2022-09-20T16:34:29.603Z,15.26
2022-09-20T16:37:01.312Z,15.21
2022-09-20T16:39:31.390Z,15.19
2022-09-20T16:42:03.505Z,15.16
2022-09-20T16:44:32.490Z,15.13
2022-09-20T16:47:01.188Z,15.11
2022-09-20T16:49:29.861Z,15.06
2022-09-20T16:51:59.392Z,15.03
2022-09-20T16:54:31.728Z,15.00
2022-09-20T16:57:00.661Z,14.94
2022-09-20T16:59:28.949Z,14.89
2022-09-20T17:01:57.819Z,14.83
2022-09-20T17:04:26.175Z,14.76
2022-09-20T17:06:54.511Z,14.68
2022-09-20T17:09:24.220Z,14.59
2022-09-20T17:11:53.884Z,14.49
2022-09-20T17:14:22.446Z,14.37
2022-09-20T17:16:51.218Z,14.27
2022-09-20T17:19:21.455Z,14.15
2022-09-20T17:21:51.699Z,14.05
2022-09-20T17:24:21.567Z,13.93
2022-09-20T17:26:53.456Z,13.81
2022-09-20T17:29:22.222Z,13.70
2022-09-20T17:31:55.639Z,13.65
2022-09-20T17:34:25.633Z,13.57
2022-09-20T17:36:55.333Z,13.54
2022-09-20T17:39:24.417Z,13.51
2022-09-20T17:41:54.259Z,13.45
2022-09-20T17:44:24.000Z,13.40
2022-09-20T17:46:53.992Z,13.36
2022-09-20T17:49:24.175Z,13.31
2022-09-20T17:51:54.525Z,13.26
2022-09-20T17:54:24.325Z,13.21
2022-09-20T17:56:55.700Z,13.18
2022-09-20T17:59:24.602Z,13.13
2022-09-20T18:01:54.239Z,13.09
2022-09-20T18:04:24.352Z,13.04
2022-09-20T18:06:54.892Z,13.00
2022-09-20T18:09:27.127Z,12.95
2022-09-20T18:11:57.592Z,12.91
2022-09-20T18:14:28.387Z,12.87
2022-09-20T18:17:00.984Z,12.82
2022-09-20T18:19:33.021Z,12.76
2022-09-20T18:22:02.414Z,12.72
2022-09-20T18:24:31.666Z,12.68
2022-09-20T18:27:01.576Z,12.66
2022-09-20T18:29:33.385Z,12.63
2022-09-20T18:32:01.850Z,12.59
2022-09-20T18:34:31.995Z,12.53
2022-09-20T18:37:03.868Z,12.48
2022-09-20T18:39:34.750Z,12.41
2022-09-20T18:42:07.960Z,12.35
2022-09-20T18:44:36.496Z,12.28
2022-09-20T18:47:05.878Z,12.21
2022-09-20T18:49:34.367Z,12.15
2022-09-20T18:52:03.623Z,12.09
2022-09-20T18:54:32.119Z,12.05
2022-09-20T18:57:03.111Z,11.99
2022-09-20T18:59:31.908Z,11.94
2022-09-20T19:02:19.760Z,11.90
2022-09-20T19:05:11.895Z,11.85
2022-09-20T19:07:54.672Z,11.80
2022-09-20T19:10:38.166Z,11.75
2022-09-20T19:13:32.356Z,11.70
2022-09-20T19:16:20.714Z,11.63
2022-09-20T19:19:08.444Z,11.59
2022-09-20T19:21:48.320Z,11.58
2022-09-20T19:24:31.888Z,11.55
2022-09-20T19:27:00.691Z,11.53
2022-09-20T19:29:31.412Z,11.47
2022-09-20T19:32:01.285Z,11.39
2022-09-20T19:34:32.187Z,11.32
2022-09-20T19:37:18.381Z,11.24
2022-09-20T19:40:03.231Z,11.18
2022-09-20T19:42:47.526Z,11.14
2022-09-20T19:45:28.950Z,11.11
2022-09-20T19:48:07.447Z,11.09
2022-09-20T19:50:45.279Z,11.07
2022-09-20T19:53:14.817Z,11.06
2022-09-20T19:55:48.093Z,11.05
2022-09-20T19:58:17.190Z,11.02
2022-09-20T20:00:48.291Z,11.03
2022-09-20T20:03:17.611Z,11.03
2022-09-20T20:05:56.099Z,11.01
2022-09-20T20:08:36.963Z,10.96
2022-09-20T20:11:15.919Z,10.93
2022-09-20T20:14:04.621Z,10.90
2022-09-20T20:16:46.775Z,10.87
2022-09-20T20:19:38.957Z,10.85
2022-09-20T20:22:19.866Z,10.82
2022-09-20T20:24:52.496Z,10.80
2022-09-20T20:27:21.014Z,10.78
2022-09-20T20:29:49.342Z,10.77
2022-09-20T20:32:18.894Z,10.75
2022-09-20T20:34:47.096Z,10.70
2022-09-20T20:37:15.707Z,10.68
2022-09-20T20:39:43.880Z,10.66
2022-09-20T20:42:12.919Z,10.67
2022-09-20T20:44:41.584Z,10.68
2022-09-20T20:47:10.042Z,10.72
2022-09-20T20:49:39.603Z,10.77
2022-09-20T20:52:08.926Z,10.81
2022-09-20T20:54:37.394Z,10.82
2022-09-20T20:57:06.110Z,10.86
2022-09-20T20:59:34.365Z,10.86
2022-09-20T21:02:07.652Z,10.88
2022-09-20T21:04:36.943Z,10.90
2022-09-20T21:07:06.801Z,10.91
2022-09-20T21:09:35.059Z,10.92
2022-09-20T21:12:04.029Z,10.93
2022-09-20T21:14:33.769Z,10.96
2022-09-20T21:17:02.409Z,10.97
2022-09-20T21:19:30.954Z,11.01
2022-09-20T21:21:59.418Z,11.03
2022-09-20T21:24:29.047Z,11.05
2022-09-20T21:26:57.568Z,11.04
2022-09-20T21:29:25.722Z,11.03
2022-09-20T21:31:53.891Z,11.01
2022-09-20T21:34:22.116Z,10.99
2022-09-20T21:36:50.390Z,10.96
2022-09-20T21:39:18.540Z,10.95
2022-09-20T21:41:48.662Z,10.90
2022-09-20T21:44:17.104Z,10.87
2022-09-20T21:46:45.280Z,10.85
2022-09-20T21:49:14.470Z,10.83
2022-09-20T21:51:43.972Z,10.82
2022-09-20T21:54:12.559Z,10.78
2022-09-20T21:56:41.633Z,10.73
2022-09-20T21:59:11.179Z,10.66
2022-09-20T22:01:41.264Z,10.60
2022-09-20T22:04:11.410Z,10.51
2022-09-20T22:06:42.004Z,10.44
2022-09-20T22:09:12.594Z,10.39
2022-09-20T22:11:43.552Z,10.34
2022-09-20T22:14:14.670Z,10.30
2022-09-20T22:16:45.455Z,10.26
2022-09-20T22:19:16.836Z,10.21
2022-09-20T22:21:47.731Z,10.17
2022-09-20T22:24:17.087Z,10.12
2022-09-20T22:26:47.846Z,10.06
2022-09-20T22:29:18.396Z,10.01
2022-09-20T22:31:50.268Z,9.98
2022-09-20T22:34:20.698Z,9.95
2022-09-20T22:36:49.344Z,9.92
2022-09-20T22:39:18.053Z,9.89
2022-09-20T22:41:47.748Z,9.85
2022-09-20T22:44:17.403Z,9.79
2022-09-20T22:46:45.882Z,9.76
2022-09-20T22:49:14.203Z,9.73
2022-09-20T22:51:42.875Z,9.71
2022-09-20T22:54:14.175Z,9.69
2022-09-20T22:56:42.697Z,9.66
2022-09-20T22:59:12.785Z,9.67
2022-09-20T23:01:45.831Z,9.68
2022-09-20T23:04:16.871Z,9.69
2022-09-20T23:06:47.972Z,9.73
2022-09-20T23:09:18.667Z,9.75
2022-09-20T23:11:47.488Z,9.77
2022-09-20T23:14:18.969Z,9.75
2022-09-20T23:16:49.499Z,9.74
2022-09-20T23:19:18.504Z,9.71
2022-09-20T23:21:46.951Z,9.69
2022-09-20T23:24:16.462Z,9.60
2022-09-20T23:26:45.589Z,9.51
2022-09-20T23:29:16.220Z,9.46
2022-09-20T23:31:47.142Z,9.39
2022-09-20T23:34:18.380Z,9.32
2022-09-20T23:36:47.278Z,9.25
2022-09-20T23:39:16.324Z,9.17
2022-09-20T23:41:49.915Z,9.12
2022-09-20T23:44:19.294Z,9.10
2022-09-20T23:46:47.809Z,9.11
2022-09-20T23:49:17.490Z,9.10
2022-09-20T23:51:45.957Z,9.09
2022-09-20T23:54:14.613Z,9.10
2022-09-20T23:56:42.870Z,9.11
2022-09-20T23:59:11.387Z,9.11
